Flight Track Log - Related Links

Times and Time Zones

All times are in EDT time to prevent confusion due to time zone crossing. See the N577K flight status page for this flight to view local times or setup timezone preferences in your user account.

Time Position Orientation Groundspeed Altitude Reporting Facility
EDT Latitude Longitude Course Direction KTS MPH feet Rate Location/Type
Sat 02:51:38 PM 40.0478 -78.9992 77° East 97 112 2,800  Level Cleveland Center
Sat 02:52:20 PM 40.0517 -78.9775 77° East 102 117 3,300 742 Climbing Cleveland Center
Sat 02:53:15 PM 40.0533 -78.9422 86° East 107 123 4,000 835 Climbing Cleveland Center
Sat 02:54:15 PM 40.0486 -78.9017 99° East 107 123 4,900 793 Climbing Cleveland Center
Sat 02:55:16 PM 40.0481 -78.8636 91° East 107 123 5,600 744 Climbing Cleveland Center
Sat 02:56:16 PM 40.0453 -78.8258 95° East 107 123 6,400 694 Climbing Cleveland Center
Sat 02:57:17 PM 40.0425 -78.7853 95° East 113 130 7,000 295 Climbing Cleveland Center
Sat 02:58:18 PM 40.0397 -78.7311 94° East 150 173 7,000  Level Cleveland Center
Sat 02:59:18 PM 40.0367 -78.6769 94° East 159 183 7,000  Level Cleveland Center
Sat 03:00:19 PM 40.0317 -78.6228 97° East 157 181 7,000  Level Cleveland Center
Sat 03:01:20 PM 40.0283 -78.5658 94° East 157 181 7,000  Level Cleveland Center
Sat 03:02:20 PM 40.0272 -78.5036 91° East 157 181 7,000  Level Cleveland Center
Sat 03:03:21 PM 40.0222 -78.4494 97° East 155 178 7,000  Level Cleveland Center
Sat 03:04:21 PM 40.0192 -78.3953 94° East 155 178 7,000  Level Cleveland Center
Sat 03:05:23 PM 40.0158 -78.3358 94° East 158 182 7,000  Level Cleveland Center
Sat 03:06:23 PM 40.0125 -78.2764 94° East 155 178 7,000  Level Cleveland Center
Sat 03:07:23 PM 40.0072 -78.2194 97° East 155 178 7,000  Level Cleveland Center
Sat 03:08:24 PM 40.0061 -78.1653 92° East 155 178 7,000 -198 Level Cleveland Center
Sat 03:09:24 PM 40.0278 -78.1131 62° Northeast 174 200 6,600 -446 Descending Cleveland Center
Sat 03:10:25 PM 40.0472 -78.0500 68° East 178 205 6,100 -492 Descending Cleveland Center
Sat 03:12:00 PM 40.0205 -77.9781 116° Southeast  Level FlightAware Approximate
Sat 03:19:00 PM 39.9559 -77.6270 94° East  Level FlightAware Approximate
Sat 03:20:00 PM 39.9532 -77.5767 94° East  Level FlightAware Approximate
Sat 03:21:00 PM 39.9505 -77.5264 94° East  Level FlightAware Approximate
Sat 03:22:00 PM 39.9478 -77.4761 94° East  Level FlightAware Approximate
Sat 03:23:00 PM 39.9450 -77.4258 94° East  Level FlightAware Approximate
Sat 03:24:00 PM 39.9422 -77.3755 94° East  Level FlightAware Approximate
Sat 03:25:00 PM 39.9394 -77.3252 94° East  Level FlightAware Approximate
Sat 03:26:00 PM 39.9366 -77.2749 94° East  Level FlightAware Approximate
Sat 03:27:00 PM 39.9338 -77.2246 94° East  Level FlightAware Approximate
Sat 03:28:00 PM 39.9333 -77.1742 90° East  Level FlightAware Approximate
Sat 03:29:00 PM 39.9283 -77.1246 105° East  Level FlightAware Approximate
Sat 03:30:00 PM 39.9185 -77.0759 105° East  Level FlightAware Approximate
Sat 03:31:00 PM 39.9167 -77.0258 90° East  Level FlightAware Approximate
Sat 03:32:00 PM 39.9167 -76.9754 90° East  Level FlightAware Approximate
Sat 03:33:00 PM 39.9167 -76.9250 90° East  Level FlightAware Approximate
Sat 03:34:00 PM 39.9167 -76.8746 90° East  Level FlightAware Approximate
Sat 03:35:00 PM 39.9167 -76.8667 90° East  Level FlightAware Approximate
Sat 03:36:00 PM 39.9170 -76.8730 90° East  Level Estimated
Sat 03:37:00 PM 39.9167 -76.8667 90° East  Level FlightAware Approximate
Sat 03:38:00 PM 39.9170 -76.8730 90° East  Level Estimated
Sat 03:39:00 PM 39.9167 -76.8667 90° East  Level FlightAware Approximate

Login

Don't have an account? Register now (free) for customized features, flight alerts, and more!